sensor_id;sensor_type;location;lat;lon;timestamp;temperature;humidity
54576;DHT22;40472;53.486;14.542;2023-06-14T00:00:53;12.60;99.90
54576;DHT22;40472;53.486;14.542;2023-06-14T00:03:21;12.70;99.90
54576;DHT22;40472;53.486;14.542;2023-06-14T00:05:50;12.80;99.90
54576;DHT22;40472;53.486;14.542;2023-06-14T00:08:15;12.80;99.90
54576;DHT22;40472;53.486;14.542;2023-06-14T00:10:41;12.80;99.90
54576;DHT22;40472;53.486;14.542;2023-06-14T00:13:11;12.80;99.90
54576;DHT22;40472;53.486;14.542;2023-06-14T00:15:37;12.80;99.90
54576;DHT22;40472;53.486;14.542;2023-06-14T00:18:04;12.80;99.90
54576;DHT22;40472;53.486;14.542;2023-06-14T00:20:31;12.80;99.90
54576;DHT22;40472;53.486;14.542;2023-06-14T00:22:59;12.80;99.90
54576;DHT22;40472;53.486;14.542;2023-06-14T00:25:25;12.90;99.90
54576;DHT22;40472;53.486;14.542;2023-06-14T00:27:52;13.00;99.90
54576;DHT22;40472;53.486;14.542;2023-06-14T00:30:18;13.10;99.90
54576;DHT22;40472;53.486;14.542;2023-06-14T00:32:44;13.10;99.90
54576;DHT22;40472;53.486;14.542;2023-06-14T00:35:11;13.10;99.90
54576;DHT22;40472;53.486;14.542;2023-06-14T00:37:37;13.20;99.90
54576;DHT22;40472;53.486;14.542;2023-06-14T00:40:04;13.20;99.90
54576;DHT22;40472;53.486;14.542;2023-06-14T00:42:31;13.10;99.90
54576;DHT22;40472;53.486;14.542;2023-06-14T00:44:57;13.10;99.90
54576;DHT22;40472;53.486;14.542;2023-06-14T00:47:23;13.20;99.90
54576;DHT22;40472;53.486;14.542;2023-06-14T00:49:51;13.20;99.90
54576;DHT22;40472;53.486;14.542;2023-06-14T00:52:18;13.30;99.90
54576;DHT22;40472;53.486;14.542;2023-06-14T00:54:44;13.30;99.90
54576;DHT22;40472;53.486;14.542;2023-06-14T00:57:11;13.30;99.90
54576;DHT22;40472;53.486;14.542;2023-06-14T00:59:48;13.30;99.90
54576;DHT22;40472;53.486;14.542;2023-06-14T01:02:14;13.50;99.90
54576;DHT22;40472;53.486;14.542;2023-06-14T01:04:41;13.50;99.90
54576;DHT22;40472;53.486;14.542;2023-06-14T01:07:27;13.60;99.90
54576;DHT22;40472;53.486;14.542;2023-06-14T01:15:20;13.70;99.90
54576;DHT22;40472;53.486;14.542;2023-06-14T01:17:49;13.70;99.90
54576;DHT22;40472;53.486;14.542;2023-06-14T01:20:17;13.70;99.90
54576;DHT22;40472;53.486;14.542;2023-06-14T01:22:54;13.70;99.90
54576;DHT22;40472;53.486;14.542;2023-06-14T01:25:21;13.70;99.90
54576;DHT22;40472;53.486;14.542;2023-06-14T01:28:08;13.80;99.90
54576;DHT22;40472;53.486;14.542;2023-06-14T01:30:37;13.80;99.90
54576;DHT22;40472;53.486;14.542;2023-06-14T01:33:04;13.90;99.90
54576;DHT22;40472;53.486;14.542;2023-06-14T01:35:31;13.90;99.90
54576;DHT22;40472;53.486;14.542;2023-06-14T01:37:57;13.80;99.90
54576;DHT22;40472;53.486;14.542;2023-06-14T01:40:24;13.80;99.90
54576;DHT22;40472;53.486;14.542;2023-06-14T01:42:50;13.80;99.90
54576;DHT22;40472;53.486;14.542;2023-06-14T01:45:19;13.80;99.90
54576;DHT22;40472;53.486;14.542;2023-06-14T01:47:45;13.80;99.90
54576;DHT22;40472;53.486;14.542;2023-06-14T01:50:11;13.70;99.90
54576;DHT22;40472;53.486;14.542;2023-06-14T01:52:37;13.80;99.90
54576;DHT22;40472;53.486;14.542;2023-06-14T01:55:05;13.80;99.90
54576;DHT22;40472;53.486;14.542;2023-06-14T01:57:31;13.70;99.90
54576;DHT22;40472;53.486;14.542;2023-06-14T01:59:57;13.70;99.90
54576;DHT22;40472;53.486;14.542;2023-06-14T02:02:23;13.70;99.90
54576;DHT22;40472;53.486;14.542;2023-06-14T02:04:48;13.80;99.90
54576;DHT22;40472;53.486;14.542;2023-06-14T02:07:14;13.70;99.90
54576;DHT22;40472;53.486;14.542;2023-06-14T02:09:41;13.80;99.90
54576;DHT22;40472;53.486;14.542;2023-06-14T02:12:08;13.70;99.90
54576;DHT22;40472;53.486;14.542;2023-06-14T02:14:33;13.70;99.90
54576;DHT22;40472;53.486;14.542;2023-06-14T02:16:59;13.70;99.90
54576;DHT22;40472;53.486;14.542;2023-06-14T02:19:26;13.70;99.90
54576;DHT22;40472;53.486;14.542;2023-06-14T02:21:52;13.70;99.90
54576;DHT22;40472;53.486;14.542;2023-06-14T02:24:18;13.60;99.90
54576;DHT22;40472;53.486;14.542;2023-06-14T02:26:44;13.60;99.90
54576;DHT22;40472;53.486;14.542;2023-06-14T02:29:09;13.60;99.90
54576;DHT22;40472;53.486;14.542;2023-06-14T02:31:38;13.60;99.90
54576;DHT22;40472;53.486;14.542;2023-06-14T02:34:04;13.60;99.90
54576;DHT22;40472;53.486;14.542;2023-06-14T02:36:31;13.60;99.90
54576;DHT22;40472;53.486;14.542;2023-06-14T02:38:57;13.60;99.90
54576;DHT22;40472;53.486;14.542;2023-06-14T02:41:26;13.60;99.90
54576;DHT22;40472;53.486;14.542;2023-06-14T02:43:52;13.60;99.90
54576;DHT22;40472;53.486;14.542;2023-06-14T02:46:18;13.60;99.90
54576;DHT22;40472;53.486;14.542;2023-06-14T02:48:44;13.60;99.90
54576;DHT22;40472;53.486;14.542;2023-06-14T02:51:10;13.60;99.90
54576;DHT22;40472;53.486;14.542;2023-06-14T02:53:38;13.60;99.90
54576;DHT22;40472;53.486;14.542;2023-06-14T02:56:04;13.60;99.90
54576;DHT22;40472;53.486;14.542;2023-06-14T02:58:30;13.60;99.90
54576;DHT22;40472;53.486;14.542;2023-06-14T03:00:56;13.60;99.90
54576;DHT22;40472;53.486;14.542;2023-06-14T03:03:22;13.70;99.90
54576;DHT22;40472;53.486;14.542;2023-06-14T03:05:50;13.70;99.90
54576;DHT22;40472;53.486;14.542;2023-06-14T03:08:16;13.70;99.90
54576;DHT22;40472;53.486;14.542;2023-06-14T03:10:46;13.70;99.90
54576;DHT22;40472;53.486;14.542;2023-06-14T03:13:13;13.80;99.90
54576;DHT22;40472;53.486;14.542;2023-06-14T03:15:39;13.90;99.90
54576;DHT22;40472;53.486;14.542;2023-06-14T03:18:08;13.90;99.90
54576;DHT22;40472;53.486;14.542;2023-06-14T03:20:38;13.90;99.90
54576;DHT22;40472;53.486;14.542;2023-06-14T03:23:04;13.90;99.90
54576;DHT22;40472;53.486;14.542;2023-06-14T03:25:31;14.00;99.90
54576;DHT22;40472;53.486;14.542;2023-06-14T03:27:58;14.00;99.90
54576;DHT22;40472;53.486;14.542;2023-06-14T03:30:24;14.00;99.90
54576;DHT22;40472;53.486;14.542;2023-06-14T03:32:50;14.00;99.90
54576;DHT22;40472;53.486;14.542;2023-06-14T03:35:21;14.00;99.90
54576;DHT22;40472;53.486;14.542;2023-06-14T03:37:47;14.10;99.90
54576;DHT22;40472;53.486;14.542;2023-06-14T03:40:14;14.20;99.90
54576;DHT22;40472;53.486;14.542;2023-06-14T03:42:40;14.20;99.90
54576;DHT22;40472;53.486;14.542;2023-06-14T03:45:07;14.20;99.90
54576;DHT22;40472;53.486;14.542;2023-06-14T03:47:33;14.20;99.90
54576;DHT22;40472;53.486;14.542;2023-06-14T03:49:59;14.20;99.90
54576;DHT22;40472;53.486;14.542;2023-06-14T03:52:25;14.20;99.90
54576;DHT22;40472;53.486;14.542;2023-06-14T03:54:51;14.20;99.90
54576;DHT22;40472;53.486;14.542;2023-06-14T03:57:18;14.20;99.90
54576;DHT22;40472;53.486;14.542;2023-06-14T03:59:44;14.20;99.90
54576;DHT22;40472;53.486;14.542;2023-06-14T04:02:09;14.20;99.90
54576;DHT22;40472;53.486;14.542;2023-06-14T04:04:36;14.30;99.90
54576;DHT22;40472;53.486;14.542;2023-06-14T04:07:02;14.40;99.90
54576;DHT22;40472;53.486;14.542;2023-06-14T04:09:32;14.40;99.90
54576;DHT22;40472;53.486;14.542;2023-06-14T04:11:58;14.50;99.90
54576;DHT22;40472;53.486;14.542;2023-06-14T04:14:23;14.60;99.90
54576;DHT22;40472;53.486;14.542;2023-06-14T04:16:49;14.60;99.90
54576;DHT22;40472;53.486;14.542;2023-06-14T04:19:16;14.70;99.90
54576;DHT22;40472;53.486;14.542;2023-06-14T04:21:41;14.80;99.90
54576;DHT22;40472;53.486;14.542;2023-06-14T04:24:07;14.80;99.90
54576;DHT22;40472;53.486;14.542;2023-06-14T04:26:42;14.80;99.90
54576;DHT22;40472;53.486;14.542;2023-06-14T04:29:10;14.80;99.90
54576;DHT22;40472;53.486;14.542;2023-06-14T04:31:43;14.90;99.90
54576;DHT22;40472;53.486;14.542;2023-06-14T04:34:10;14.90;99.90
54576;DHT22;40472;53.486;14.542;2023-06-14T04:36:42;15.00;99.90
54576;DHT22;40472;53.486;14.542;2023-06-14T04:39:18;15.00;99.90
54576;DHT22;40472;53.486;14.542;2023-06-14T04:41:44;15.00;99.90
54576;DHT22;40472;53.486;14.542;2023-06-14T04:44:10;15.00;99.90
54576;DHT22;40472;53.486;14.542;2023-06-14T04:46:39;15.00;99.90
54576;DHT22;40472;53.486;14.542;2023-06-14T04:49:17;15.00;99.90
54576;DHT22;40472;53.486;14.542;2023-06-14T04:51:45;15.10;99.90
54576;DHT22;40472;53.486;14.542;2023-06-14T04:54:12;15.20;99.90
54576;DHT22;40472;53.486;14.542;2023-06-14T04:56:41;15.30;99.90
54576;DHT22;40472;53.486;14.542;2023-06-14T04:59:11;15.30;99.90
54576;DHT22;40472;53.486;14.542;2023-06-14T05:01:38;15.50;99.90
54576;DHT22;40472;53.486;14.542;2023-06-14T05:04:04;15.60;99.90
54576;DHT22;40472;53.486;14.542;2023-06-14T05:06:32;15.70;99.90
54576;DHT22;40472;53.486;14.542;2023-06-14T05:08:58;15.80;99.90
54576;DHT22;40472;53.486;14.542;2023-06-14T05:11:24;15.90;99.90
54576;DHT22;40472;53.486;14.542;2023-06-14T05:13:50;15.90;99.90
54576;DHT22;40472;53.486;14.542;2023-06-14T05:16:17;15.90;99.90
54576;DHT22;40472;53.486;14.542;2023-06-14T05:18:45;15.90;99.90
54576;DHT22;40472;53.486;14.542;2023-06-14T05:21:12;15.90;99.90
54576;DHT22;40472;53.486;14.542;2023-06-14T05:23:38;15.80;99.90
54576;DHT22;40472;53.486;14.542;2023-06-14T05:26:04;15.90;99.90
54576;DHT22;40472;53.486;14.542;2023-06-14T05:28:32;15.80;99.90
54576;DHT22;40472;53.486;14.542;2023-06-14T05:30:57;15.90;99.90
54576;DHT22;40472;53.486;14.542;2023-06-14T05:33:23;15.90;99.90
54576;DHT22;40472;53.486;14.542;2023-06-14T05:35:49;15.90;99.90
54576;DHT22;40472;53.486;14.542;2023-06-14T05:38:15;16.00;99.70
54576;DHT22;40472;53.486;14.542;2023-06-14T05:40:41;16.00;99.90
54576;DHT22;40472;53.486;14.542;2023-06-14T05:43:07;16.00;99.90
54576;DHT22;40472;53.486;14.542;2023-06-14T05:45:32;16.00;99.70
54576;DHT22;40472;53.486;14.542;2023-06-14T05:48:01;16.10;99.40
54576;DHT22;40472;53.486;14.542;2023-06-14T05:50:27;16.10;98.60
54576;DHT22;40472;53.486;14.542;2023-06-14T05:52:53;16.10;98.90
54576;DHT22;40472;53.486;14.542;2023-06-14T05:55:22;16.10;98.80
54576;DHT22;40472;53.486;14.542;2023-06-14T05:57:52;16.00;98.90
54576;DHT22;40472;53.486;14.542;2023-06-14T06:00:18;16.20;99.70
54576;DHT22;40472;53.486;14.542;2023-06-14T06:02:45;16.10;99.40
54576;DHT22;40472;53.486;14.542;2023-06-14T06:05:14;16.20;99.10
54576;DHT22;40472;53.486;14.542;2023-06-14T06:07:41;16.30;99.60
54576;DHT22;40472;53.486;14.542;2023-06-14T06:10:07;16.40;98.80
54576;DHT22;40472;53.486;14.542;2023-06-14T06:12:33;16.50;98.00
54576;DHT22;40472;53.486;14.542;2023-06-14T06:14:59;16.50;97.90
54576;DHT22;40472;53.486;14.542;2023-06-14T06:17:26;16.50;98.80
54576;DHT22;40472;53.486;14.542;2023-06-14T06:19:52;16.60;98.80
54576;DHT22;40472;53.486;14.542;2023-06-14T06:22:18;16.60;98.20
54576;DHT22;40472;53.486;14.542;2023-06-14T06:24:43;16.70;98.30
54576;DHT22;40472;53.486;14.542;2023-06-14T06:27:09;16.70;97.70
54576;DHT22;40472;53.486;14.542;2023-06-14T06:29:36;16.70;97.50
54576;DHT22;40472;53.486;14.542;2023-06-14T06:32:02;16.70;96.90
54576;DHT22;40472;53.486;14.542;2023-06-14T06:34:28;16.80;97.50
54576;DHT22;40472;53.486;14.542;2023-06-14T06:36:53;16.90;97.30
54576;DHT22;40472;53.486;14.542;2023-06-14T06:39:19;17.00;97.30
54576;DHT22;40472;53.486;14.542;2023-06-14T06:41:45;17.10;96.90
54576;DHT22;40472;53.486;14.542;2023-06-14T06:44:11;17.20;95.50
54576;DHT22;40472;53.486;14.542;2023-06-14T06:46:36;17.20;95.90
54576;DHT22;40472;53.486;14.542;2023-06-14T06:49:09;17.20;95.60
54576;DHT22;40472;53.486;14.542;2023-06-14T06:51:40;17.20;95.40
54576;DHT22;40472;53.486;14.542;2023-06-14T06:54:07;17.20;95.00
54576;DHT22;40472;53.486;14.542;2023-06-14T06:56:34;17.20;93.90
54576;DHT22;40472;53.486;14.542;2023-06-14T06:59:00;17.20;95.30
54576;DHT22;40472;53.486;14.542;2023-06-14T07:01:26;17.30;93.50
54576;DHT22;40472;53.486;14.542;2023-06-14T07:03:54;17.30;93.70
54576;DHT22;40472;53.486;14.542;2023-06-14T07:06:21;17.50;93.10
54576;DHT22;40472;53.486;14.542;2023-06-14T07:08:46;17.60;93.40
54576;DHT22;40472;53.486;14.542;2023-06-14T07:11:15;17.70;91.60
54576;DHT22;40472;53.486;14.542;2023-06-14T07:13:41;17.80;91.10
54576;DHT22;40472;53.486;14.542;2023-06-14T07:16:07;17.80;90.60
54576;DHT22;40472;53.486;14.542;2023-06-14T07:18:33;17.80;91.30
54576;DHT22;40472;53.486;14.542;2023-06-14T07:20:59;17.80;91.30
54576;DHT22;40472;53.486;14.542;2023-06-14T07:23:25;17.90;91.20
54576;DHT22;40472;53.486;14.542;2023-06-14T07:25:51;18.00;90.70
54576;DHT22;40472;53.486;14.542;2023-06-14T07:28:17;18.00;90.50
54576;DHT22;40472;53.486;14.542;2023-06-14T07:30:44;18.10;90.90
54576;DHT22;40472;53.486;14.542;2023-06-14T07:33:10;18.20;90.70
54576;DHT22;40472;53.486;14.542;2023-06-14T07:35:37;18.40;89.60
54576;DHT22;40472;53.486;14.542;2023-06-14T07:38:03;18.40;85.40
54576;DHT22;40472;53.486;14.542;2023-06-14T07:40:29;18.40;85.30
54576;DHT22;40472;53.486;14.542;2023-06-14T07:42:55;18.50;87.80
54576;DHT22;40472;53.486;14.542;2023-06-14T07:45:21;18.70;85.30
54576;DHT22;40472;53.486;14.542;2023-06-14T07:47:46;18.80;84.30
54576;DHT22;40472;53.486;14.542;2023-06-14T07:50:12;18.90;84.30
54576;DHT22;40472;53.486;14.542;2023-06-14T07:52:39;18.90;83.70
54576;DHT22;40472;53.486;14.542;2023-06-14T07:55:05;19.00;83.40
54576;DHT22;40472;53.486;14.542;2023-06-14T07:57:31;19.00;82.80
54576;DHT22;40472;53.486;14.542;2023-06-14T07:59:57;19.10;85.00
54576;DHT22;40472;53.486;14.542;2023-06-14T08:02:24;19.20;80.00
54576;DHT22;40472;53.486;14.542;2023-06-14T08:04:50;19.20;83.30
54576;DHT22;40472;53.486;14.542;2023-06-14T08:07:16;19.20;81.00
54576;DHT22;40472;53.486;14.542;2023-06-14T08:09:42;19.20;82.00
54576;DHT22;40472;53.486;14.542;2023-06-14T08:12:08;19.30;82.40
54576;DHT22;40472;53.486;14.542;2023-06-14T08:14:35;19.40;81.80
54576;DHT22;40472;53.486;14.542;2023-06-14T08:17:01;19.50;82.10
54576;DHT22;40472;53.486;14.542;2023-06-14T08:19:27;19.60;82.30
54576;DHT22;40472;53.486;14.542;2023-06-14T08:21:53;19.70;82.30
54576;DHT22;40472;53.486;14.542;2023-06-14T08:24:24;19.70;80.20
54576;DHT22;40472;53.486;14.542;2023-06-14T08:26:50;19.70;79.70
54576;DHT22;40472;53.486;14.542;2023-06-14T08:29:16;19.70;80.90
54576;DHT22;40472;53.486;14.542;2023-06-14T08:31:42;19.70;80.40
54576;DHT22;40472;53.486;14.542;2023-06-14T08:34:07;19.70;80.40
54576;DHT22;40472;53.486;14.542;2023-06-14T08:36:35;19.60;81.00
54576;DHT22;40472;53.486;14.542;2023-06-14T08:39:01;19.80;84.70
54576;DHT22;40472;53.486;14.542;2023-06-14T08:41:28;19.90;81.90
54576;DHT22;40472;53.486;14.542;2023-06-14T08:43:56;20.00;81.10
54576;DHT22;40472;53.486;14.542;2023-06-14T08:46:24;20.20;80.60
54576;DHT22;40472;53.486;14.542;2023-06-14T08:48:55;20.20;79.70
54576;DHT22;40472;53.486;14.542;2023-06-14T08:51:25;20.40;79.60
54576;DHT22;40472;53.486;14.542;2023-06-14T08:53:54;20.50;78.80
54576;DHT22;40472;53.486;14.542;2023-06-14T08:56:25;20.70;81.60
54576;DHT22;40472;53.486;14.542;2023-06-14T08:58:51;20.80;78.90
54576;DHT22;40472;53.486;14.542;2023-06-14T09:01:18;21.00;77.30
54576;DHT22;40472;53.486;14.542;2023-06-14T09:03:44;20.80;78.40
54576;DHT22;40472;53.486;14.542;2023-06-14T09:06:11;20.80;76.80
54576;DHT22;40472;53.486;14.542;2023-06-14T09:08:46;20.80;77.30
54576;DHT22;40472;53.486;14.542;2023-06-14T09:11:17;20.90;77.80
54576;DHT22;40472;53.486;14.542;2023-06-14T09:13:45;20.90;78.50
54576;DHT22;40472;53.486;14.542;2023-06-14T09:16:12;21.00;77.40
54576;DHT22;40472;53.486;14.542;2023-06-14T09:21:08;21.20;77.30
54576;DHT22;40472;53.486;14.542;2023-06-14T09:23:38;21.30;76.90
54576;DHT22;40472;53.486;14.542;2023-06-14T09:26:09;21.20;76.60
54576;DHT22;40472;53.486;14.542;2023-06-14T09:28:36;21.20;75.20
54576;DHT22;40472;53.486;14.542;2023-06-14T09:31:02;21.20;75.70
54576;DHT22;40472;53.486;14.542;2023-06-14T09:33:28;21.20;75.70
54576;DHT22;40472;53.486;14.542;2023-06-14T09:35:54;21.40;74.30
54576;DHT22;40472;53.486;14.542;2023-06-14T09:38:20;21.20;75.00
54576;DHT22;40472;53.486;14.542;2023-06-14T09:40:46;21.30;77.90
54576;DHT22;40472;53.486;14.542;2023-06-14T09:43:12;21.50;73.30
54576;DHT22;40472;53.486;14.542;2023-06-14T09:45:39;21.50;73.60
54576;DHT22;40472;53.486;14.542;2023-06-14T09:48:09;21.40;74.90
54576;DHT22;40472;53.486;14.542;2023-06-14T09:50:45;21.50;74.60
54576;DHT22;40472;53.486;14.542;2023-06-14T09:53:13;21.50;77.20
54576;DHT22;40472;53.486;14.542;2023-06-14T09:55:41;21.60;74.30
54576;DHT22;40472;53.486;14.542;2023-06-14T09:58:08;21.90;74.90
54576;DHT22;40472;53.486;14.542;2023-06-14T10:00:36;22.10;72.50
54576;DHT22;40472;53.486;14.542;2023-06-14T10:03:16;22.00;71.20
54576;DHT22;40472;53.486;14.542;2023-06-14T10:05:46;22.00;73.30
54576;DHT22;40472;53.486;14.542;2023-06-14T10:08:16;22.00;72.90
54576;DHT22;40472;53.486;14.542;2023-06-14T10:10:44;22.00;73.10
54576;DHT22;40472;53.486;14.542;2023-06-14T10:13:11;22.10;75.60
54576;DHT22;40472;53.486;14.542;2023-06-14T10:16:00;22.10;73.10
54576;DHT22;40472;53.486;14.542;2023-06-14T10:18:56;22.10;73.50
54576;DHT22;40472;53.486;14.542;2023-06-14T10:24:03;22.40;72.60
54576;DHT22;40472;53.486;14.542;2023-06-14T10:26:30;22.50;70.10
54576;DHT22;40472;53.486;14.542;2023-06-14T10:29:08;22.40;69.30
54576;DHT22;40472;53.486;14.542;2023-06-14T10:34:11;22.30;71.20
54576;DHT22;40472;53.486;14.542;2023-06-14T10:36:41;22.40;73.70
54576;DHT22;40472;53.486;14.542;2023-06-14T10:39:14;22.50;72.20
54576;DHT22;40472;53.486;14.542;2023-06-14T10:41:41;22.70;73.70
54576;DHT22;40472;53.486;14.542;2023-06-14T10:46:49;22.50;68.90
54576;DHT22;40472;53.486;14.542;2023-06-14T10:49:18;22.40;69.10
54576;DHT22;40472;53.486;14.542;2023-06-14T10:51:46;22.80;69.30
54576;DHT22;40472;53.486;14.542;2023-06-14T10:54:15;23.10;67.90
54576;DHT22;40472;53.486;14.542;2023-06-14T10:56:52;23.30;69.00
54576;DHT22;40472;53.486;14.542;2023-06-14T10:59:19;23.80;67.30
54576;DHT22;40472;53.486;14.542;2023-06-14T11:01:58;23.90;65.70
54576;DHT22;40472;53.486;14.542;2023-06-14T11:04:50;23.60;65.80
54576;DHT22;40472;53.486;14.542;2023-06-14T11:12:47;23.30;67.30
54576;DHT22;40472;53.486;14.542;2023-06-14T11:15:13;23.30;67.70
54576;DHT22;40472;53.486;14.542;2023-06-14T11:17:49;23.40;67.10
54576;DHT22;40472;53.486;14.542;2023-06-14T11:20:15;23.50;67.90
54576;DHT22;40472;53.486;14.542;2023-06-14T11:22:42;23.00;67.40
54576;DHT22;40472;53.486;14.542;2023-06-14T11:25:14;22.70;67.80
54576;DHT22;40472;53.486;14.542;2023-06-14T11:27:43;22.50;68.00
54576;DHT22;40472;53.486;14.542;2023-06-14T11:30:10;22.30;69.10
54576;DHT22;40472;53.486;14.542;2023-06-14T11:32:37;22.30;70.80
54576;DHT22;40472;53.486;14.542;2023-06-14T11:35:04;22.40;69.90
54576;DHT22;40472;53.486;14.542;2023-06-14T11:37:33;22.50;71.80
54576;DHT22;40472;53.486;14.542;2023-06-14T11:40:02;22.40;68.60
54576;DHT22;40472;53.486;14.542;2023-06-14T11:42:34;22.30;68.40
54576;DHT22;40472;53.486;14.542;2023-06-14T11:45:00;22.30;68.40
54576;DHT22;40472;53.486;14.542;2023-06-14T11:47:38;22.30;70.20
54576;DHT22;40472;53.486;14.542;2023-06-14T11:50:07;22.40;70.70
54576;DHT22;40472;53.486;14.542;2023-06-14T11:52:34;22.50;70.30
54576;DHT22;40472;53.486;14.542;2023-06-14T11:55:02;22.60;68.90
54576;DHT22;40472;53.486;14.542;2023-06-14T11:57:34;22.40;68.40
54576;DHT22;40472;53.486;14.542;2023-06-14T12:02:54;22.40;70.90
54576;DHT22;40472;53.486;14.542;2023-06-14T12:05:23;22.30;69.60
54576;DHT22;40472;53.486;14.542;2023-06-14T12:07:49;22.10;69.60
54576;DHT22;40472;53.486;14.542;2023-06-14T12:10:16;22.20;70.60
54576;DHT22;40472;53.486;14.542;2023-06-14T12:12:42;22.10;70.30
54576;DHT22;40472;53.486;14.542;2023-06-14T12:15:09;22.00;70.80
54576;DHT22;40472;53.486;14.542;2023-06-14T12:17:37;21.90;70.50
54576;DHT22;40472;53.486;14.542;2023-06-14T12:20:12;22.00;70.30
54576;DHT22;40472;53.486;14.542;2023-06-14T12:22:57;22.00;69.10
54576;DHT22;40472;53.486;14.542;2023-06-14T12:27:55;22.40;68.50
54576;DHT22;40472;53.486;14.542;2023-06-14T12:30:21;22.50;69.30
54576;DHT22;40472;53.486;14.542;2023-06-14T12:32:47;22.30;69.50
54576;DHT22;40472;53.486;14.542;2023-06-14T12:35:14;22.30;70.70
54576;DHT22;40472;53.486;14.542;2023-06-14T12:37:41;22.40;70.70
54576;DHT22;40472;53.486;14.542;2023-06-14T12:40:07;22.40;71.40
54576;DHT22;40472;53.486;14.542;2023-06-14T12:42:33;22.50;71.00
54576;DHT22;40472;53.486;14.542;2023-06-14T12:44:59;22.80;70.20
54576;DHT22;40472;53.486;14.542;2023-06-14T12:47:25;23.00;70.30
54576;DHT22;40472;53.486;14.542;2023-06-14T12:49:51;23.20;70.10
54576;DHT22;40472;53.486;14.542;2023-06-14T12:52:16;23.20;68.70
54576;DHT22;40472;53.486;14.542;2023-06-14T12:54:42;23.40;66.70
54576;DHT22;40472;53.486;14.542;2023-06-14T12:57:08;23.40;67.30
54576;DHT22;40472;53.486;14.542;2023-06-14T12:59:35;23.10;67.90
54576;DHT22;40472;53.486;14.542;2023-06-14T13:02:18;22.90;68.00
54576;DHT22;40472;53.486;14.542;2023-06-14T13:04:44;22.70;69.10
54576;DHT22;40472;53.486;14.542;2023-06-14T13:07:10;22.60;67.50
54576;DHT22;40472;53.486;14.542;2023-06-14T13:09:36;22.40;69.60
54576;DHT22;40472;53.486;14.542;2023-06-14T13:12:03;22.30;70.20
54576;DHT22;40472;53.486;14.542;2023-06-14T13:14:28;22.30;71.20
54576;DHT22;40472;53.486;14.542;2023-06-14T13:16:54;22.30;69.60
54576;DHT22;40472;53.486;14.542;2023-06-14T13:19:21;22.30;70.70
54576;DHT22;40472;53.486;14.542;2023-06-14T13:21:48;22.30;70.90
54576;DHT22;40472;53.486;14.542;2023-06-14T13:24:14;22.20;71.20
54576;DHT22;40472;53.486;14.542;2023-06-14T13:26:40;22.20;71.50
54576;DHT22;40472;53.486;14.542;2023-06-14T13:29:06;22.20;71.20
54576;DHT22;40472;53.486;14.542;2023-06-14T13:31:32;22.10;72.10
54576;DHT22;40472;53.486;14.542;2023-06-14T13:33:58;22.20;72.20
54576;DHT22;40472;53.486;14.542;2023-06-14T13:36:24;22.10;72.10
54576;DHT22;40472;53.486;14.542;2023-06-14T13:38:50;22.20;71.80
54576;DHT22;40472;53.486;14.542;2023-06-14T13:41:18;22.30;72.60
54576;DHT22;40472;53.486;14.542;2023-06-14T13:43:44;22.20;70.70
54576;DHT22;40472;53.486;14.542;2023-06-14T13:46:09;22.20;72.50
54576;DHT22;40472;53.486;14.542;2023-06-14T13:48:35;22.20;71.10
54576;DHT22;40472;53.486;14.542;2023-06-14T13:51:01;22.30;71.30
54576;DHT22;40472;53.486;14.542;2023-06-14T13:53:29;22.20;73.30
54576;DHT22;40472;53.486;14.542;2023-06-14T13:55:55;22.20;74.10
54576;DHT22;40472;53.486;14.542;2023-06-14T13:58:22;22.00;74.10
54576;DHT22;40472;53.486;14.542;2023-06-14T14:00:49;22.10;74.20
54576;DHT22;40472;53.486;14.542;2023-06-14T14:03:14;22.00;74.20
54576;DHT22;40472;53.486;14.542;2023-06-14T14:05:40;22.10;74.00
54576;DHT22;40472;53.486;14.542;2023-06-14T14:08:06;22.10;74.40
54576;DHT22;40472;53.486;14.542;2023-06-14T14:10:32;22.10;72.50
54576;DHT22;40472;53.486;14.542;2023-06-14T14:12:58;22.10;76.40
54576;DHT22;40472;53.486;14.542;2023-06-14T14:15:25;21.90;74.60
54576;DHT22;40472;53.486;14.542;2023-06-14T14:17:51;21.90;74.40
54576;DHT22;40472;53.486;14.542;2023-06-14T14:20:22;21.90;75.40
54576;DHT22;40472;53.486;14.542;2023-06-14T14:22:49;21.90;76.70
54576;DHT22;40472;53.486;14.542;2023-06-14T14:25:15;21.90;75.40
54576;DHT22;40472;53.486;14.542;2023-06-14T14:27:41;22.00;74.20
54576;DHT22;40472;53.486;14.542;2023-06-14T14:30:07;22.00;75.20
54576;DHT22;40472;53.486;14.542;2023-06-14T14:32:33;21.80;75.60
54576;DHT22;40472;53.486;14.542;2023-06-14T14:34:59;21.80;73.40
54576;DHT22;40472;53.486;14.542;2023-06-14T14:37:26;21.70;75.30
54576;DHT22;40472;53.486;14.542;2023-06-14T14:39:52;21.70;76.70
54576;DHT22;40472;53.486;14.542;2023-06-14T14:42:17;21.50;77.70
54576;DHT22;40472;53.486;14.542;2023-06-14T14:44:44;21.40;76.80
54576;DHT22;40472;53.486;14.542;2023-06-14T14:47:10;21.40;76.70
54576;DHT22;40472;53.486;14.542;2023-06-14T14:49:36;21.40;76.40
54576;DHT22;40472;53.486;14.542;2023-06-14T14:52:04;21.30;77.50
54576;DHT22;40472;53.486;14.542;2023-06-14T14:54:33;21.30;77.30
54576;DHT22;40472;53.486;14.542;2023-06-14T14:56:59;21.20;77.10
54576;DHT22;40472;53.486;14.542;2023-06-14T14:59:25;21.20;77.90
54576;DHT22;40472;53.486;14.542;2023-06-14T15:01:53;21.20;77.90
54576;DHT22;40472;53.486;14.542;2023-06-14T15:04:19;21.20;79.00
54576;DHT22;40472;53.486;14.542;2023-06-14T15:06:45;21.10;79.80
54576;DHT22;40472;53.486;14.542;2023-06-14T15:09:11;21.30;79.30
54576;DHT22;40472;53.486;14.542;2023-06-14T15:11:37;21.30;80.30
54576;DHT22;40472;53.486;14.542;2023-06-14T15:14:03;21.20;79.10
54576;DHT22;40472;53.486;14.542;2023-06-14T15:16:30;21.40;75.20
54576;DHT22;40472;53.486;14.542;2023-06-14T15:18:59;21.40;77.20
54576;DHT22;40472;53.486;14.542;2023-06-14T15:21:27;21.60;72.30
54576;DHT22;40472;53.486;14.542;2023-06-14T15:23:55;21.60;71.40
54576;DHT22;40472;53.486;14.542;2023-06-14T15:26:21;21.70;71.10
54576;DHT22;40472;53.486;14.542;2023-06-14T15:28:49;21.70;71.70
54576;DHT22;40472;53.486;14.542;2023-06-14T15:31:16;21.90;72.20
54576;DHT22;40472;53.486;14.542;2023-06-14T15:33:43;22.00;68.30
54576;DHT22;40472;53.486;14.542;2023-06-14T15:36:10;22.00;70.50
54576;DHT22;40472;53.486;14.542;2023-06-14T15:38:36;22.20;68.10
54576;DHT22;40472;53.486;14.542;2023-06-14T15:41:02;22.50;68.70
54576;DHT22;40472;53.486;14.542;2023-06-14T15:43:29;22.70;67.20